createdAt,value
2023-02-05T00:00:50.277Z,71.27
2023-02-05T00:03:16.893Z,70.94
2023-02-05T00:05:43.616Z,70.88
2023-02-05T00:08:10.175Z,71.05
2023-02-05T00:10:36.729Z,70.89
2023-02-05T00:13:03.345Z,70.65
2023-02-05T00:15:30.104Z,70.59
2023-02-05T00:17:56.624Z,70.49
2023-02-05T00:20:23.242Z,70.36
2023-02-05T00:22:49.745Z,70.35
2023-02-05T00:25:16.537Z,70.50
2023-02-05T00:27:43.180Z,70.15
2023-02-05T00:30:10.184Z,70.22
2023-02-05T00:32:36.813Z,70.32
2023-02-05T00:35:03.433Z,70.45
2023-02-05T00:37:29.963Z,70.56
2023-02-05T00:39:56.514Z,70.36
2023-02-05T00:42:23.010Z,70.49
2023-02-05T00:44:49.545Z,70.75
2023-02-05T00:47:16.078Z,71.05
2023-02-05T00:49:42.712Z,70.98
2023-02-05T00:52:09.344Z,71.08
2023-02-05T00:54:35.885Z,71.32
2023-02-05T00:57:02.514Z,71.06
2023-02-05T00:59:28.987Z,71.18
2023-02-05T01:01:55.571Z,71.18
2023-02-05T01:04:22.077Z,71.50
2023-02-05T01:06:48.713Z,71.89
2023-02-05T01:09:15.229Z,71.83
2023-02-05T01:11:41.735Z,71.66
2023-02-05T01:14:08.293Z,71.52
2023-02-05T01:16:34.957Z,71.66
2023-02-05T01:19:01.431Z,71.52
2023-02-05T01:21:28.012Z,71.41
2023-02-05T01:23:54.797Z,71.07
2023-02-05T01:26:21.658Z,70.82
2023-02-05T01:28:48.279Z,70.95
2023-02-05T01:31:15.032Z,70.72
2023-02-05T01:33:41.667Z,70.85
2023-02-05T01:36:08.716Z,70.58
2023-02-05T01:38:35.370Z,70.68
2023-02-05T01:41:01.977Z,70.44
2023-02-05T01:43:28.671Z,70.43
2023-02-05T01:46:06.864Z,69.03
2023-02-05T01:48:42.264Z,69.30
2023-02-05T01:51:12.832Z,69.92
2023-02-05T01:53:40.408Z,70.55
2023-02-05T01:56:20.394Z,70.49
2023-02-05T01:59:10.295Z,69.25
2023-02-05T02:01:38.709Z,70.88
2023-02-05T02:04:05.878Z,70.74
2023-02-05T02:06:34.441Z,70.55
2023-02-05T02:09:02.170Z,70.64
2023-02-05T02:11:33.096Z,70.11
2023-02-05T02:14:03.446Z,70.18
2023-02-05T02:16:30.470Z,70.49
2023-02-05T02:18:57.400Z,70.73
2023-02-05T02:21:45.620Z,69.60
2023-02-05T02:24:42.632Z,69.07
2023-02-05T02:27:21.177Z,69.71
2023-02-05T02:29:55.383Z,70.75
2023-02-05T02:32:43.463Z,69.66
2023-02-05T02:35:20.989Z,69.74
2023-02-05T02:38:17.817Z,69.75
2023-02-05T02:41:04.886Z,68.81
2023-02-05T02:43:41.176Z,69.02
2023-02-05T02:46:17.863Z,69.30
2023-02-05T02:48:48.221Z,69.63
2023-02-05T02:51:17.547Z,69.63
2023-02-05T02:53:47.193Z,69.57
2023-02-05T02:56:16.327Z,69.83
2023-02-05T02:58:48.548Z,69.67
2023-02-05T03:01:23.593Z,69.43
2023-02-05T03:03:58.717Z,69.45
2023-02-05T03:06:27.075Z,69.69
2023-02-05T03:09:01.689Z,68.81
2023-02-05T03:11:28.356Z,70.19
2023-02-05T03:13:56.579Z,70.37
2023-02-05T03:16:27.266Z,70.71
2023-02-05T03:18:56.188Z,70.66
2023-02-05T03:21:34.133Z,69.07
2023-02-05T03:24:00.674Z,68.02
2023-02-05T03:26:35.244Z,69.97
2023-02-05T03:29:14.766Z,70.62
2023-02-05T03:32:01.392Z,69.82
2023-02-05T03:34:57.584Z,69.14
2023-02-05T03:37:54.233Z,69.58
2023-02-05T03:40:46.165Z,69.04
2023-02-05T03:43:30.915Z,69.69
2023-02-05T03:46:15.080Z,68.50
2023-02-05T03:49:00.499Z,68.31
2023-02-05T03:52:07.836Z,68.26
2023-02-05T03:54:57.541Z,68.40
2023-02-05T03:57:35.334Z,68.53
2023-02-05T04:00:02.911Z,68.89
2023-02-05T04:02:40.923Z,68.92
2023-02-05T04:05:09.204Z,68.83
2023-02-05T04:07:36.055Z,68.97
2023-02-05T04:10:03.980Z,67.55
2023-02-05T04:12:31.156Z,68.78
2023-02-05T04:14:58.004Z,68.82
2023-02-05T04:17:24.625Z,68.90
2023-02-05T04:19:51.558Z,69.08
2023-02-05T04:22:20.020Z,69.06
2023-02-05T04:24:47.336Z,69.09
2023-02-05T04:27:15.051Z,69.01
2023-02-05T04:29:41.524Z,68.99
2023-02-05T04:32:08.066Z,69.04
2023-02-05T04:34:34.870Z,68.99
2023-02-05T04:37:02.113Z,68.76
2023-02-05T04:39:29.983Z,68.70
2023-02-05T04:41:56.482Z,68.97
2023-02-05T04:44:23.435Z,69.02
2023-02-05T04:46:50.039Z,69.08
2023-02-05T04:49:16.632Z,69.10
2023-02-05T04:51:43.130Z,69.12
2023-02-05T04:54:09.700Z,69.37
2023-02-05T04:56:36.192Z,69.49
2023-02-05T04:59:02.739Z,69.58
2023-02-05T05:01:29.420Z,69.76
2023-02-05T05:03:55.940Z,69.73
2023-02-05T05:06:22.539Z,69.93
2023-02-05T05:08:49.009Z,69.95
2023-02-05T05:11:18.203Z,69.62
2023-02-05T05:13:45.913Z,69.67
2023-02-05T05:16:12.997Z,69.55
2023-02-05T05:18:40.706Z,69.31
2023-02-05T05:21:07.936Z,69.12
2023-02-05T05:23:35.320Z,69.18
2023-02-05T05:26:04.833Z,68.94
2023-02-05T05:28:31.550Z,69.38
2023-02-05T05:30:58.145Z,69.41
2023-02-05T05:33:24.608Z,69.55
2023-02-05T05:35:51.083Z,69.37
2023-02-05T05:38:17.627Z,69.54
2023-02-05T05:40:44.102Z,69.46
2023-02-05T05:43:13.004Z,69.12
2023-02-05T05:45:39.638Z,69.40
2023-02-05T05:48:06.204Z,69.42
2023-02-05T05:50:32.668Z,69.72
2023-02-05T05:53:01.563Z,69.75
2023-02-05T05:55:28.020Z,70.04
2023-02-05T05:57:54.626Z,70.24
2023-02-05T06:00:21.228Z,70.37
2023-02-05T06:02:47.830Z,70.80
2023-02-05T06:05:14.537Z,70.89
2023-02-05T06:07:41.120Z,71.08
2023-02-05T06:10:08.379Z,71.74
2023-02-05T06:12:34.910Z,72.79
2023-02-05T06:15:01.412Z,73.29
2023-02-05T06:17:28.260Z,73.52
2023-02-05T06:19:55.263Z,73.73
2023-02-05T06:22:22.025Z,73.98
2023-02-05T06:24:48.589Z,73.91
2023-02-05T06:27:15.120Z,73.71
2023-02-05T06:29:41.662Z,73.52
2023-02-05T06:32:08.297Z,73.47
2023-02-05T06:34:34.792Z,73.55
2023-02-05T06:37:01.375Z,73.41
2023-02-05T06:39:27.979Z,73.24
2023-02-05T06:41:54.430Z,73.06
2023-02-05T06:44:21.010Z,72.73
2023-02-05T06:46:47.749Z,72.95
2023-02-05T06:49:14.200Z,72.82
2023-02-05T06:51:40.893Z,72.52
2023-02-05T06:54:07.495Z,72.46
2023-02-05T06:56:33.937Z,71.92
2023-02-05T06:59:00.373Z,71.69
2023-02-05T07:01:27.189Z,71.32
2023-02-05T07:03:56.098Z,71.01
2023-02-05T07:06:23.362Z,70.75
2023-02-05T07:08:50.813Z,70.44
2023-02-05T07:11:17.576Z,70.30
2023-02-05T07:13:44.162Z,70.15
2023-02-05T07:16:10.809Z,70.28
2023-02-05T07:18:37.631Z,70.16
2023-02-05T07:21:06.981Z,69.62
2023-02-05T07:23:34.144Z,70.07
2023-02-05T07:26:26.990Z,67.60
2023-02-05T07:28:53.591Z,70.27
2023-02-05T07:31:20.162Z,70.40
2023-02-05T07:33:47.642Z,70.51
2023-02-05T07:36:16.409Z,70.61
2023-02-05T07:38:44.922Z,70.91
2023-02-05T07:41:14.560Z,71.03
2023-02-05T07:43:41.529Z,71.46
2023-02-05T07:46:11.817Z,71.43
2023-02-05T07:48:38.793Z,71.61
2023-02-05T07:51:06.399Z,71.69
2023-02-05T07:53:33.158Z,71.79
2023-02-05T07:56:06.300Z,70.40
2023-02-05T07:58:32.810Z,72.27
2023-02-05T08:01:03.996Z,71.07
2023-02-05T08:03:30.955Z,72.64
2023-02-05T08:05:58.105Z,72.50
2023-02-05T08:08:25.420Z,72.61
2023-02-05T08:11:06.367Z,70.68
2023-02-05T08:13:33.568Z,72.53
2023-02-05T08:16:00.073Z,72.57
2023-02-05T08:18:26.580Z,72.61
2023-02-05T08:20:54.618Z,72.47
2023-02-05T08:23:21.591Z,70.33
2023-02-05T08:25:48.264Z,72.73
2023-02-05T08:28:14.995Z,72.83
2023-02-05T08:30:41.544Z,72.83
2023-02-05T08:33:08.104Z,73.05
2023-02-05T08:35:34.933Z,73.47
2023-02-05T08:38:01.652Z,73.71
2023-02-05T08:40:28.289Z,74.06
2023-02-05T08:42:55.017Z,74.00
2023-02-05T08:45:21.565Z,74.33
2023-02-05T08:47:48.114Z,74.72
2023-02-05T08:50:14.628Z,74.75
2023-02-05T08:52:41.680Z,74.64
2023-02-05T08:55:09.021Z,74.51
2023-02-05T08:57:35.623Z,75.01
2023-02-05T09:00:02.410Z,74.91
2023-02-05T09:02:31.161Z,74.39
2023-02-05T09:05:07.968Z,74.57
2023-02-05T09:07:36.861Z,74.50
2023-02-05T09:10:03.786Z,74.37
2023-02-05T09:12:30.312Z,74.32
2023-02-05T09:14:56.808Z,73.94
2023-02-05T09:17:23.315Z,74.09
2023-02-05T09:19:49.797Z,74.50
2023-02-05T09:22:16.269Z,74.56
2023-02-05T09:24:42.764Z,74.67
2023-02-05T09:27:09.244Z,74.97
2023-02-05T09:29:35.751Z,73.26
2023-02-05T09:32:02.377Z,74.08
2023-02-05T09:34:28.921Z,74.18
2023-02-05T09:36:55.408Z,74.70
2023-02-05T09:39:52.633Z,74.52
2023-02-05T09:42:18.444Z,70.65
2023-02-05T09:45:09.536Z,69.49
2023-02-05T09:47:43.256Z,70.25
2023-02-05T09:50:21.328Z,70.28
2023-02-05T09:52:50.413Z,72.74
2023-02-05T09:55:20.063Z,72.96
2023-02-05T09:57:46.770Z,75.08
2023-02-05T10:00:45.689Z,68.40
2023-02-05T10:03:40.372Z,70.22
2023-02-05T10:06:33.776Z,69.11
2023-02-05T10:09:09.528Z,68.98
2023-02-05T10:11:51.107Z,71.00
2023-02-05T10:14:35.307Z,74.77
2023-02-05T10:17:12.065Z,67.58
2023-02-05T10:20:03.321Z,68.42
2023-02-05T10:22:47.512Z,72.01
2023-02-05T10:25:34.045Z,68.08
2023-02-05T10:28:19.238Z,66.36
2023-02-05T10:30:55.557Z,70.59
2023-02-05T10:33:44.865Z,69.59
2023-02-05T10:36:12.625Z,74.79
2023-02-05T10:38:44.748Z,69.05
2023-02-05T10:41:42.836Z,66.96
2023-02-05T10:44:24.268Z,73.79
2023-02-05T10:46:56.472Z,71.68
2023-02-05T10:49:42.609Z,66.98
2023-02-05T10:52:13.944Z,70.74
2023-02-05T10:54:40.712Z,76.66
2023-02-05T10:57:16.749Z,65.78
2023-02-05T11:00:12.788Z,62.19
2023-02-05T11:02:41.516Z,74.03
2023-02-05T11:05:20.202Z,71.22
2023-02-05T11:07:49.404Z,72.69
2023-02-05T11:10:21.572Z,69.55
2023-02-05T11:13:02.131Z,74.97
2023-02-05T11:15:31.780Z,73.67
2023-02-05T11:18:01.679Z,69.01
2023-02-05T11:20:37.763Z,67.72
2023-02-05T11:23:23.104Z,67.44
2023-02-05T11:25:50.821Z,72.62
2023-02-05T11:28:22.794Z,67.98
2023-02-05T11:30:51.540Z,72.80
2023-02-05T11:33:21.796Z,68.55
2023-02-05T11:36:05.335Z,60.21
2023-02-05T11:38:54.087Z,62.94
2023-02-05T11:41:38.773Z,71.36
2023-02-05T11:44:05.526Z,71.67
2023-02-05T11:46:42.532Z,68.01
2023-02-05T11:49:21.310Z,63.71
2023-02-05T11:51:53.241Z,64.75
2023-02-05T11:54:25.426Z,64.49
2023-02-05T11:57:04.361Z,66.90
2023-02-05T11:59:31.849Z,65.11
2023-02-05T12:02:26.308Z,66.98
2023-02-05T12:05:03.590Z,64.67
2023-02-05T12:07:37.808Z,62.25
2023-02-05T12:10:12.410Z,60.75
2023-02-05T12:12:50.973Z,58.17
2023-02-05T12:15:29.424Z,58.16
2023-02-05T12:18:20.889Z,59.33
2023-02-05T12:21:08.691Z,60.79
2023-02-05T12:23:59.345Z,61.96
2023-02-05T12:26:37.085Z,61.64
2023-02-05T12:29:17.018Z,61.51
2023-02-05T12:31:59.057Z,62.15
2023-02-05T12:34:45.650Z,59.73
2023-02-05T12:37:43.401Z,60.75
2023-02-05T12:40:37.799Z,63.98
2023-02-05T12:43:09.876Z,61.94
2023-02-05T12:45:55.521Z,62.16
2023-02-05T12:49:12.677Z,61.08
2023-02-05T12:52:10.279Z,60.87
2023-02-05T12:54:54.270Z,64.53
2023-02-05T12:57:29.389Z,64.84
2023-02-05T13:00:02.503Z,62.95
2023-02-05T13:03:07.348Z,64.95
2023-02-05T13:05:50.987Z,61.67
2023-02-05T13:08:36.123Z,61.61
2023-02-05T13:11:17.249Z,64.30
2023-02-05T13:13:56.427Z,62.01
2023-02-05T13:16:30.882Z,63.79
2023-02-05T13:19:05.370Z,63.42
2023-02-05T13:21:33.196Z,65.37
2023-02-05T13:24:21.437Z,64.02
2023-02-05T13:26:48.260Z,62.98
2023-02-05T13:29:17.774Z,63.87
2023-02-05T13:31:49.813Z,63.52
2023-02-05T13:34:18.106Z,64.89
2023-02-05T13:37:25.390Z,62.47
2023-02-05T13:40:10.200Z,64.07
2023-02-05T13:43:10.424Z,62.79
2023-02-05T13:46:21.416Z,64.84
2023-02-05T13:49:06.562Z,62.44
2023-02-05T13:51:47.885Z,64.68
2023-02-05T13:54:45.623Z,61.62
2023-02-05T13:57:38.492Z,63.96
2023-02-05T14:00:10.089Z,64.53
2023-02-05T14:02:47.164Z,64.29
2023-02-05T14:05:14.233Z,65.60
2023-02-05T14:07:48.675Z,63.91
2023-02-05T14:10:26.848Z,62.73
2023-02-05T14:12:54.334Z,64.84
2023-02-05T14:15:20.759Z,65.32
2023-02-05T14:17:47.247Z,64.53
2023-02-05T14:20:25.808Z,62.48
2023-02-05T14:22:54.327Z,65.43
2023-02-05T14:25:36.423Z,64.90
2023-02-05T14:28:03.831Z,65.11
2023-02-05T14:30:30.410Z,65.29
2023-02-05T14:32:59.938Z,65.09
2023-02-05T14:35:33.315Z,64.54
2023-02-05T14:38:02.205Z,65.79
2023-02-05T14:40:33.681Z,65.58
2023-02-05T14:43:12.875Z,66.22
2023-02-05T14:45:45.110Z,65.61
2023-02-05T14:48:30.654Z,65.17
2023-02-05T14:51:01.530Z,66.38
2023-02-05T14:53:29.290Z,67.08
2023-02-05T14:55:55.931Z,67.30
2023-02-05T14:58:30.577Z,66.45
2023-02-05T15:01:34.247Z,65.87
2023-02-05T15:04:05.468Z,66.97
2023-02-05T15:06:40.270Z,67.11
2023-02-05T15:09:17.701Z,66.67
2023-02-05T15:11:56.393Z,68.08
2023-02-05T15:14:22.920Z,69.02
2023-02-05T15:17:04.890Z,67.68
2023-02-05T15:19:49.558Z,67.02
2023-02-05T15:22:36.376Z,67.13
2023-02-05T15:25:31.186Z,67.10
2023-02-05T15:28:02.258Z,69.07
2023-02-05T15:30:39.005Z,68.70
2023-02-05T15:33:13.154Z,68.79
2023-02-05T15:35:44.379Z,68.90
2023-02-05T15:38:41.341Z,68.09
2023-02-05T15:41:10.617Z,69.35
2023-02-05T15:43:37.224Z,69.18
2023-02-05T15:46:07.591Z,68.99
2023-02-05T15:48:36.608Z,69.17
2023-02-05T15:51:17.676Z,68.17
2023-02-05T15:53:49.510Z,69.23
2023-02-05T15:56:34.573Z,69.84
2023-02-05T15:59:10.140Z,67.99
2023-02-05T16:01:44.344Z,68.67
2023-02-05T16:04:22.634Z,68.76
2023-02-05T16:06:49.277Z,70.02
2023-02-05T16:09:20.513Z,69.88
2023-02-05T16:11:47.981Z,70.12
2023-02-05T16:14:17.197Z,69.94
2023-02-05T16:17:14.491Z,68.59
2023-02-05T16:19:49.238Z,69.41
2023-02-05T16:22:34.259Z,69.00
2023-02-05T16:25:07.097Z,69.86
2023-02-05T16:27:43.738Z,69.28
2023-02-05T16:30:36.843Z,68.24
2023-02-05T16:33:04.821Z,70.62
2023-02-05T16:35:42.174Z,69.07
2023-02-05T16:38:16.910Z,69.39
2023-02-05T16:40:46.422Z,70.50
2023-02-05T16:43:36.113Z,69.06
2023-02-05T16:46:08.535Z,69.65
2023-02-05T16:48:47.008Z,69.33
2023-02-05T16:51:51.496Z,69.65
2023-02-05T16:54:17.941Z,70.84
2023-02-05T16:56:50.633Z,70.61
2023-02-05T16:59:24.340Z,69.64
2023-02-05T17:01:52.653Z,70.72
2023-02-05T17:04:22.734Z,70.65
2023-02-05T17:06:49.252Z,70.78
2023-02-05T17:09:32.541Z,69.23
2023-02-05T17:12:36.363Z,69.15
2023-02-05T17:15:15.185Z,69.29
2023-02-05T17:17:57.010Z,68.93
2023-02-05T17:20:25.393Z,70.61
2023-02-05T17:23:00.933Z,69.18
2023-02-05T17:25:29.085Z,70.86
2023-02-05T17:27:55.896Z,68.95
2023-02-05T17:30:22.505Z,71.26
2023-02-05T17:32:49.295Z,71.17
2023-02-05T17:35:20.483Z,70.29
2023-02-05T17:37:46.968Z,71.17
2023-02-05T17:40:13.775Z,71.01
2023-02-05T17:42:40.763Z,71.12
2023-02-05T17:45:22.645Z,69.58
2023-02-05T17:47:49.181Z,70.79
2023-02-05T17:50:18.998Z,70.62
2023-02-05T17:52:46.142Z,70.38
2023-02-05T17:55:18.207Z,69.40
2023-02-05T17:57:45.355Z,70.56
2023-02-05T18:00:24.217Z,69.45
2023-02-05T18:02:51.013Z,70.93
2023-02-05T18:05:17.622Z,71.22
2023-02-05T18:07:50.698Z,70.07
2023-02-05T18:10:23.240Z,70.77
2023-02-05T18:12:50.180Z,71.52
2023-02-05T18:15:16.863Z,71.36
2023-02-05T18:17:43.469Z,71.38
2023-02-05T18:20:12.158Z,70.73
2023-02-05T18:22:39.025Z,71.31
2023-02-05T18:25:06.355Z,71.29
2023-02-05T18:27:33.223Z,71.32
2023-02-05T18:29:59.752Z,70.93
2023-02-05T18:32:26.360Z,71.13
2023-02-05T18:34:52.812Z,71.21
2023-02-05T18:37:19.568Z,71.23
2023-02-05T18:39:46.355Z,71.31
2023-02-05T18:42:12.900Z,70.81
2023-02-05T18:44:39.946Z,70.73
2023-02-05T18:47:09.646Z,70.24
2023-02-05T18:49:36.224Z,70.10
2023-02-05T18:52:02.822Z,70.10
2023-02-05T18:54:29.369Z,69.72
2023-02-05T18:56:55.868Z,69.47
2023-02-05T18:59:22.820Z,69.09
2023-02-05T19:01:50.138Z,68.88
2023-02-05T19:04:16.970Z,68.55
2023-02-05T19:06:45.909Z,68.34
2023-02-05T19:09:12.497Z,68.67
2023-02-05T19:11:39.069Z,69.01
2023-02-05T19:14:05.563Z,69.48
2023-02-05T19:16:35.262Z,69.46
2023-02-05T19:19:02.667Z,70.03
2023-02-05T19:21:29.931Z,70.14
2023-02-05T19:23:58.464Z,70.21
2023-02-05T19:26:29.418Z,69.86
2023-02-05T19:28:58.294Z,70.61
2023-02-05T19:31:28.248Z,70.87
2023-02-05T19:33:55.723Z,71.65
2023-02-05T19:36:22.861Z,71.79
2023-02-05T19:38:49.591Z,72.14
2023-02-05T19:41:19.038Z,72.41
2023-02-05T19:43:50.834Z,71.88
2023-02-05T19:46:19.566Z,72.69
2023-02-05T19:48:46.279Z,72.93
2023-02-05T19:51:13.939Z,72.97
2023-02-05T19:53:42.263Z,72.90
2023-02-05T19:56:12.417Z,72.37
2023-02-05T19:58:41.271Z,72.72
2023-02-05T20:01:14.516Z,71.72
2023-02-05T20:03:41.885Z,72.80
2023-02-05T20:06:09.587Z,72.50
2023-02-05T20:08:36.459Z,72.50
2023-02-05T20:11:04.065Z,72.20
2023-02-05T20:13:33.208Z,71.66
2023-02-05T20:16:14.102Z,69.49
2023-02-05T20:18:41.698Z,71.68
2023-02-05T20:21:10.691Z,71.82
2023-02-05T20:23:39.309Z,71.93
2023-02-05T20:26:07.242Z,72.23
2023-02-05T20:28:36.281Z,71.84
2023-02-05T20:31:06.336Z,71.41
2023-02-05T20:33:32.893Z,72.46
2023-02-05T20:36:07.725Z,71.30
2023-02-05T20:38:34.961Z,72.45
2023-02-05T20:41:10.970Z,69.89
2023-02-05T20:43:37.695Z,72.46
2023-02-05T20:46:05.054Z,72.23
2023-02-05T20:48:31.834Z,72.09
2023-02-05T20:51:11.053Z,70.07
2023-02-05T20:53:38.415Z,72.23
2023-02-05T20:56:11.000Z,71.74
2023-02-05T20:58:37.999Z,72.13
2023-02-05T21:01:10.063Z,71.97
2023-02-05T21:03:37.636Z,71.99
2023-02-05T21:06:04.386Z,71.93
2023-02-05T21:08:31.350Z,71.77
2023-02-05T21:10:57.964Z,71.35
2023-02-05T21:13:24.480Z,71.14
2023-02-05T21:15:53.336Z,70.86
2023-02-05T21:18:20.290Z,70.85
2023-02-05T21:20:46.842Z,70.73
2023-02-05T21:23:13.375Z,70.56
2023-02-05T21:25:39.890Z,70.59
2023-02-05T21:28:06.404Z,70.26
2023-02-05T21:30:33.109Z,70.50
2023-02-05T21:33:00.757Z,70.63
2023-02-05T21:35:27.289Z,70.27
2023-02-05T21:37:53.926Z,70.36
2023-02-05T21:40:20.595Z,70.54
2023-02-05T21:42:47.369Z,70.32
2023-02-05T21:45:13.991Z,70.31
2023-02-05T21:47:40.525Z,70.32
2023-02-05T21:50:07.450Z,70.19
2023-02-05T21:52:33.905Z,70.37
2023-02-05T21:55:00.396Z,70.35
2023-02-05T21:57:26.944Z,70.72
2023-02-05T21:59:53.484Z,70.67
2023-02-05T22:02:20.071Z,70.54
2023-02-05T22:04:46.575Z,70.61
2023-02-05T22:07:13.074Z,70.36
2023-02-05T22:09:39.595Z,70.20
2023-02-05T22:12:06.150Z,69.93
2023-02-05T22:14:33.593Z,69.73
2023-02-05T22:17:00.646Z,69.43
2023-02-05T22:19:27.505Z,69.47
2023-02-05T22:21:54.409Z,69.06
2023-02-05T22:24:22.007Z,68.67
2023-02-05T22:26:48.889Z,68.67
2023-02-05T22:29:18.075Z,68.20
2023-02-05T22:31:45.958Z,68.30
2023-02-05T22:34:12.817Z,68.03
2023-02-05T22:36:39.316Z,68.11
2023-02-05T22:39:06.514Z,67.88
2023-02-05T22:41:36.331Z,67.70
2023-02-05T22:44:04.489Z,67.80
2023-02-05T22:46:33.094Z,66.85
2023-02-05T22:49:01.808Z,67.59
2023-02-05T22:51:32.307Z,67.57
2023-02-05T22:53:59.500Z,67.51
2023-02-05T22:56:26.626Z,67.56
2023-02-05T22:58:55.998Z,67.33
2023-02-05T23:01:32.117Z,67.10
2023-02-05T23:03:59.307Z,67.81
2023-02-05T23:06:28.924Z,67.66
2023-02-05T23:09:08.380Z,66.99
2023-02-05T23:11:35.754Z,67.91
2023-02-05T23:14:03.772Z,67.76
2023-02-05T23:16:33.604Z,67.75
2023-02-05T23:19:02.407Z,67.86
2023-02-05T23:21:31.800Z,67.67
2023-02-05T23:23:58.395Z,67.74
2023-02-05T23:26:27.811Z,67.83
2023-02-05T23:28:55.901Z,67.91
2023-02-05T23:31:23.065Z,67.62
2023-02-05T23:33:50.636Z,67.99
2023-02-05T23:36:17.749Z,67.85
2023-02-05T23:38:44.924Z,67.95
2023-02-05T23:41:11.840Z,67.92
2023-02-05T23:43:38.789Z,67.96
2023-02-05T23:46:07.281Z,67.91
2023-02-05T23:48:34.238Z,68.03
2023-02-05T23:51:00.892Z,68.11
2023-02-05T23:53:27.706Z,68.19
2023-02-05T23:55:54.516Z,68.08
2023-02-05T23:58:22.370Z,68.16
